createdAt,value
2022-09-12T00:01:27.170Z,101206.00
2022-09-12T00:03:55.923Z,101200.41
2022-09-12T00:06:26.507Z,101197.38
2022-09-12T00:08:59.224Z,101197.88
2022-09-12T00:11:26.738Z,101189.38
2022-09-12T00:13:57.495Z,101200.28
2022-09-12T00:16:27.199Z,101188.72
2022-09-12T00:18:54.156Z,101192.59
2022-09-12T00:21:22.040Z,101193.41
2022-09-12T00:23:48.993Z,101196.41
2022-09-12T00:26:17.317Z,101202.16
2022-09-12T00:28:44.986Z,101185.78
2022-09-12T00:31:15.973Z,101191.22
2022-09-12T00:33:43.434Z,101199.09
2022-09-12T00:36:14.859Z,101199.09
2022-09-12T00:38:43.150Z,101201.72
2022-09-12T00:41:21.956Z,101201.38
2022-09-12T00:43:53.061Z,101193.16
2022-09-12T00:46:28.285Z,101199.00
2022-09-12T00:49:02.788Z,101208.09
2022-09-12T00:51:32.829Z,101197.06
2022-09-12T00:54:03.080Z,101194.81
2022-09-12T00:56:29.941Z,101197.66
2022-09-12T00:59:18.961Z,101190.06
2022-09-12T01:01:50.163Z,101183.50
2022-09-12T01:04:19.661Z,101183.69
2022-09-12T01:06:47.192Z,101190.00
2022-09-12T01:09:18.014Z,101190.25
2022-09-12T01:11:47.203Z,101189.72
2022-09-12T01:14:14.997Z,101187.25
2022-09-12T01:16:41.974Z,101182.88
2022-09-12T01:19:15.086Z,101187.91
2022-09-12T01:22:19.311Z,101190.94
2022-09-12T01:25:12.793Z,101188.31
2022-09-12T01:27:54.701Z,101188.59
2022-09-12T01:30:54.104Z,101192.16
2022-09-12T01:33:32.839Z,101185.63
2022-09-12T01:36:19.653Z,101190.19
2022-09-12T01:38:50.438Z,101177.00
2022-09-12T01:41:31.864Z,101180.38
2022-09-12T01:44:15.551Z,101185.03
2022-09-12T01:47:05.690Z,101184.66
2022-09-12T01:49:46.431Z,101174.34
2022-09-12T01:52:33.327Z,101177.94
2022-09-12T01:55:20.354Z,101177.09
2022-09-12T01:58:13.873Z,101170.53
2022-09-12T02:00:50.298Z,101174.19
2022-09-12T02:03:33.054Z,101174.91
2022-09-12T02:06:18.608Z,101179.25
2022-09-12T02:08:49.397Z,101173.59
2022-09-12T02:11:16.437Z,101181.63
2022-09-12T02:13:48.460Z,101191.56
2022-09-12T02:16:22.310Z,101183.97
2022-09-12T02:18:55.286Z,101186.69
2022-09-12T02:21:24.681Z,101189.44
2022-09-12T02:23:57.378Z,101189.44
2022-09-12T02:26:31.082Z,101186.78
2022-09-12T02:28:57.929Z,101187.22
2022-09-12T02:31:42.786Z,101184.94
2022-09-12T02:34:22.237Z,101178.28
2022-09-12T02:37:03.362Z,101180.16
2022-09-12T02:39:30.218Z,101179.91
2022-09-12T02:42:01.063Z,101183.53
2022-09-12T02:44:29.832Z,101182.78
2022-09-12T02:47:02.530Z,101184.72
2022-09-12T02:49:29.225Z,101183.41
2022-09-12T02:51:56.141Z,101187.81
2022-09-12T02:54:25.037Z,101188.47
2022-09-12T02:56:51.973Z,101186.59
2022-09-12T02:59:23.041Z,101187.34
2022-09-12T03:01:55.567Z,101192.66
2022-09-12T03:04:54.454Z,101184.31
2022-09-12T03:07:26.898Z,101191.50
2022-09-12T03:10:02.448Z,101180.03
2022-09-12T03:12:44.472Z,101185.69
2022-09-12T03:15:52.093Z,101179.44
2022-09-12T03:18:37.270Z,101186.28
2022-09-12T03:21:18.662Z,101178.50
2022-09-12T03:24:15.674Z,101178.41
2022-09-12T03:26:54.916Z,101177.66
2022-09-12T03:29:24.111Z,101172.88
2022-09-12T03:31:56.797Z,101180.75
2022-09-12T03:34:25.976Z,101185.13
2022-09-12T03:36:55.461Z,101180.16
2022-09-12T03:39:27.055Z,101181.56
2022-09-12T03:41:54.946Z,101176.50
2022-09-12T03:44:22.089Z,101185.38
2022-09-12T03:46:48.719Z,101171.63
2022-09-12T03:49:15.433Z,101183.44
2022-09-12T03:51:43.150Z,101185.97
2022-09-12T03:54:11.456Z,101185.13
2022-09-12T03:56:38.221Z,101188.09
2022-09-12T03:59:06.246Z,101195.34
2022-09-12T04:01:33.693Z,101198.91
2022-09-12T04:04:00.548Z,101196.78
2022-09-12T04:06:27.276Z,101191.06
2022-09-12T04:08:55.421Z,101202.63
2022-09-12T04:11:22.911Z,101187.09
2022-09-12T04:13:50.970Z,101186.34
2022-09-12T04:16:18.727Z,101196.88
2022-09-12T04:18:46.399Z,101185.66
2022-09-12T04:21:18.628Z,101193.00
2022-09-12T04:23:46.043Z,101194.75
2022-09-12T04:26:13.966Z,101186.34
2022-09-12T04:28:41.803Z,101188.19
2022-09-12T04:31:15.734Z,101190.97
2022-09-12T04:33:42.698Z,101188.13
2022-09-12T04:36:14.425Z,101193.34
2022-09-12T04:38:41.216Z,101196.72
2022-09-12T04:41:29.192Z,101196.19
2022-09-12T04:43:58.943Z,101197.41
2022-09-12T04:46:26.283Z,101196.56
2022-09-12T04:48:56.607Z,101185.44
2022-09-12T04:51:27.920Z,101192.91
2022-09-12T04:54:06.898Z,101192.66
2022-09-12T04:56:36.794Z,101195.03
2022-09-12T04:59:03.626Z,101189.81
2022-09-12T05:01:30.452Z,101191.56
2022-09-12T05:03:59.887Z,101188.69
2022-09-12T05:06:30.102Z,101191.97
2022-09-12T05:08:58.521Z,101192.22
2022-09-12T05:11:59.763Z,101195.97
2022-09-12T05:14:18.605Z,101188.13
2022-09-12T05:16:49.207Z,101189.63
2022-09-12T05:19:16.685Z,101203.38
2022-09-12T05:21:43.277Z,101193.75
2022-09-12T05:24:11.455Z,101190.88
2022-09-12T05:26:38.270Z,101193.81
2022-09-12T05:29:07.229Z,101198.44
2022-09-12T05:31:34.928Z,101202.47
2022-09-12T05:34:04.649Z,101206.16
2022-09-12T05:36:31.491Z,101197.50
2022-09-12T05:38:59.945Z,101202.81
2022-09-12T05:41:33.034Z,101205.13
2022-09-12T05:44:01.929Z,101205.84
2022-09-12T05:46:31.141Z,101210.22
2022-09-12T05:49:02.313Z,101207.28
2022-09-12T05:51:31.825Z,101212.34
2022-09-12T05:54:00.958Z,101207.88
2022-09-12T05:56:29.802Z,101217.13
2022-09-12T05:58:59.756Z,101221.19
2022-09-12T06:01:27.871Z,101215.69
2022-09-12T06:03:56.918Z,101214.38
2022-09-12T06:06:25.495Z,101218.50
2022-09-12T06:08:53.632Z,101220.94
2022-09-12T06:11:23.173Z,101234.63
2022-09-12T06:13:53.033Z,101233.03
2022-09-12T06:16:22.190Z,101225.09
2022-09-12T06:18:51.758Z,101239.00
2022-09-12T06:21:18.507Z,101231.41
2022-09-12T06:23:48.192Z,101234.59
2022-09-12T06:26:17.501Z,101243.91
2022-09-12T06:28:45.474Z,101241.44
2022-09-12T06:31:25.193Z,101253.75
2022-09-12T06:33:53.624Z,101253.81
2022-09-12T06:36:27.068Z,101251.25
2022-09-12T06:38:57.173Z,101251.66
2022-09-12T06:41:25.402Z,101248.94
2022-09-12T06:43:52.095Z,101246.66
2022-09-12T06:46:19.270Z,101246.41
2022-09-12T06:48:46.386Z,101248.94
2022-09-12T06:51:15.335Z,101257.59
2022-09-12T06:53:44.390Z,101250.50
2022-09-12T06:56:14.341Z,101249.16
2022-09-12T06:58:42.713Z,101242.66
2022-09-12T07:01:20.911Z,101240.97
2022-09-12T07:03:49.876Z,101242.88
2022-09-12T07:06:18.601Z,101241.91
2022-09-12T07:08:45.979Z,101237.88
2022-09-12T07:11:20.262Z,101241.97
2022-09-12T07:13:49.445Z,101228.69
2022-09-12T07:16:19.628Z,101231.81
2022-09-12T07:19:00.577Z,101238.94
2022-09-12T07:21:27.585Z,101243.47
2022-09-12T07:24:00.639Z,101247.69
2022-09-12T07:26:29.097Z,101247.69
2022-09-12T07:29:12.768Z,101243.78
2022-09-12T07:31:44.456Z,101239.97
2022-09-12T07:34:11.305Z,101241.91
2022-09-12T07:36:38.118Z,101240.44
2022-09-12T07:39:04.829Z,101242.00
2022-09-12T07:41:35.670Z,101236.72
2022-09-12T07:44:03.387Z,101239.97
2022-09-12T07:46:31.683Z,101236.94
2022-09-12T07:49:00.481Z,101246.19
2022-09-12T07:51:29.283Z,101243.56
2022-09-12T07:53:56.659Z,101244.22
2022-09-12T07:56:29.368Z,101248.69
2022-09-12T07:58:57.492Z,101247.34
2022-09-12T08:01:24.658Z,101247.44
2022-09-12T08:03:55.678Z,101254.72
2022-09-12T08:06:26.682Z,101254.19
2022-09-12T08:08:56.024Z,101250.69
2022-09-12T08:11:24.886Z,101255.13
2022-09-12T08:13:56.128Z,101254.19
2022-09-12T08:16:29.681Z,101247.75
2022-09-12T08:18:57.022Z,101255.78
2022-09-12T08:21:27.031Z,101254.53
2022-09-12T08:23:56.393Z,101253.78
2022-09-12T08:26:23.607Z,101265.81
2022-09-12T08:28:51.270Z,101256.09
2022-09-12T08:31:20.064Z,101256.16
2022-09-12T08:33:46.801Z,101257.50
2022-09-12T08:36:19.780Z,101255.34
2022-09-12T08:38:47.752Z,101246.81
2022-09-12T08:41:30.408Z,101249.16
2022-09-12T08:44:07.036Z,101250.31
2022-09-12T08:47:10.779Z,101251.03
2022-09-12T08:49:56.961Z,101249.66
2022-09-12T08:52:36.367Z,101250.94
2022-09-12T08:55:06.705Z,101248.81
2022-09-12T08:57:33.698Z,101250.78
2022-09-12T09:00:04.698Z,101254.00
2022-09-12T09:02:31.338Z,101244.63
2022-09-12T09:05:30.041Z,101250.94
2022-09-12T09:08:14.464Z,101247.69
2022-09-12T09:11:13.310Z,101254.81
2022-09-12T09:14:05.337Z,101241.97
2022-09-12T09:16:38.571Z,101241.97
2022-09-12T09:19:12.238Z,101234.44
2022-09-12T09:21:45.489Z,101232.25
2022-09-12T09:24:16.966Z,101232.38
2022-09-12T09:26:55.141Z,101235.19
2022-09-12T09:29:27.089Z,101232.59
2022-09-12T09:31:57.952Z,101242.41
2022-09-12T09:34:29.184Z,101236.47
2022-09-12T09:37:19.252Z,101231.75
2022-09-12T09:40:12.832Z,101233.91
2022-09-12T09:43:24.353Z,101233.09
2022-09-12T09:45:52.861Z,101228.91
2022-09-12T09:48:37.800Z,101232.44
2022-09-12T09:51:07.207Z,101227.97
2022-09-12T09:53:51.717Z,101228.28
2022-09-12T09:56:42.631Z,101230.66
2022-09-12T09:59:26.080Z,101224.31
2022-09-12T10:02:24.361Z,101223.47
2022-09-12T10:04:57.672Z,101210.94
2022-09-12T10:07:26.188Z,101221.09
2022-09-12T10:10:16.112Z,101214.94
2022-09-12T10:12:43.844Z,101216.25
2022-09-12T10:15:26.234Z,101217.72
2022-09-12T10:17:54.854Z,101206.41
2022-09-12T10:20:35.289Z,101206.31
2022-09-12T10:23:29.528Z,101214.03
2022-09-12T10:26:01.494Z,101210.13
2022-09-12T10:28:37.489Z,101213.53
2022-09-12T10:31:04.787Z,101212.69
2022-09-12T10:33:51.613Z,101214.78
2022-09-12T10:36:19.614Z,101209.56
2022-09-12T10:39:05.469Z,101209.28
2022-09-12T10:41:37.969Z,101214.63
2022-09-12T10:44:14.784Z,101219.78
2022-09-12T10:46:41.347Z,101209.84
2022-09-12T10:49:13.889Z,101205.28
2022-09-12T10:51:40.846Z,101201.16
2022-09-12T10:54:13.141Z,101204.28
2022-09-12T10:57:01.876Z,101202.94
2022-09-12T10:59:51.273Z,101204.59
2022-09-12T11:02:46.269Z,101200.78
2022-09-12T11:06:00.495Z,101198.41
2022-09-12T11:09:06.151Z,101203.16
2022-09-12T11:12:06.850Z,101195.41
2022-09-12T11:14:48.098Z,101195.84
2022-09-12T11:17:31.465Z,101194.88
2022-09-12T11:20:04.521Z,101199.38
2022-09-12T11:22:48.844Z,101197.44
2022-09-12T11:25:27.742Z,101198.50
2022-09-12T11:28:00.319Z,101195.75
2022-09-12T11:30:31.571Z,101192.78
2022-09-12T11:33:16.664Z,101193.84
2022-09-12T11:35:54.969Z,101182.69
2022-09-12T11:38:47.356Z,101191.06
2022-09-12T11:41:34.853Z,101191.63
2022-09-12T11:44:26.281Z,101187.97
2022-09-12T11:46:52.990Z,101187.13
2022-09-12T11:49:35.254Z,101182.78
2022-09-12T11:52:16.720Z,101179.50
2022-09-12T11:54:58.000Z,101179.44
2022-09-12T11:57:44.445Z,101175.25
2022-09-12T12:00:37.431Z,101170.53
2022-09-12T12:03:07.030Z,101165.59
2022-09-12T12:05:52.252Z,101166.88
2022-09-12T12:08:21.294Z,101166.38
2022-09-12T12:10:53.851Z,101169.06
2022-09-12T12:13:30.026Z,101168.78
2022-09-12T12:16:07.336Z,101161.44
2022-09-12T12:18:37.945Z,101166.44
2022-09-12T12:21:22.564Z,101160.75
2022-09-12T12:24:07.447Z,101162.13
2022-09-12T12:26:40.038Z,101156.09
2022-09-12T12:29:19.535Z,101155.09
2022-09-12T12:32:04.264Z,101150.44
2022-09-12T12:34:39.106Z,101152.25
2022-09-12T12:37:21.137Z,101153.41
2022-09-12T12:39:51.325Z,101159.41
2022-09-12T12:42:36.233Z,101152.72
2022-09-12T12:45:22.746Z,101147.88
2022-09-12T12:47:53.884Z,101155.75
2022-09-12T12:50:20.453Z,101151.75
2022-09-12T12:53:06.754Z,101155.25
2022-09-12T12:55:50.354Z,101146.44
2022-09-12T12:58:37.541Z,101160.59
2022-09-12T13:01:10.350Z,101151.84
2022-09-12T13:03:40.967Z,101147.13
2022-09-12T13:06:20.725Z,101147.97
2022-09-12T13:09:00.621Z,101138.09
2022-09-12T13:11:32.056Z,101145.00
2022-09-12T13:14:01.708Z,101141.19
2022-09-12T13:16:38.723Z,101138.25
2022-09-12T13:19:18.415Z,101130.72
2022-09-12T13:22:01.596Z,101130.44
2022-09-12T13:24:28.346Z,101130.44
2022-09-12T13:26:55.425Z,101130.28
2022-09-12T13:29:27.454Z,101120.91
2022-09-12T13:32:03.622Z,101118.94
2022-09-12T13:34:31.966Z,101127.09
2022-09-12T13:37:39.781Z,101112.38
2022-09-12T13:40:26.669Z,101107.13
2022-09-12T13:43:22.726Z,101113.44
2022-09-12T13:45:50.737Z,101113.59
2022-09-12T13:48:22.083Z,101100.22
2022-09-12T13:51:00.316Z,101102.06
2022-09-12T13:53:37.182Z,101105.09
2022-09-12T13:56:03.902Z,101103.91
2022-09-12T13:58:33.690Z,101105.06
2022-09-12T14:01:21.346Z,101098.41
2022-09-12T14:04:14.766Z,101099.38
2022-09-12T14:06:45.220Z,101098.56
2022-09-12T14:09:15.177Z,101097.06
2022-09-12T14:11:41.918Z,101102.38
2022-09-12T14:14:21.993Z,101101.31
2022-09-12T14:16:50.280Z,101093.19
2022-09-12T14:19:19.409Z,101097.28
2022-09-12T14:21:46.508Z,101090.00
2022-09-12T14:24:14.837Z,101097.19
2022-09-12T14:26:43.193Z,101090.84
2022-09-12T14:29:12.737Z,101083.91
2022-09-12T14:31:39.725Z,101079.38
2022-09-12T14:34:19.501Z,101084.59
2022-09-12T14:36:51.072Z,101082.88
2022-09-12T14:39:33.530Z,101070.16
2022-09-12T14:42:16.645Z,101071.56
2022-09-12T14:45:14.133Z,101075.69
2022-09-12T14:47:43.259Z,101071.16
2022-09-12T14:50:19.025Z,101074.34
2022-09-12T14:52:45.747Z,101067.56
2022-09-12T14:55:16.134Z,101067.53
2022-09-12T14:57:44.669Z,101065.16
2022-09-12T15:00:14.770Z,101062.28
2022-09-12T15:02:43.006Z,101061.63
2022-09-12T15:05:12.202Z,101059.81
2022-09-12T15:07:51.080Z,101055.28
2022-09-12T15:10:37.793Z,101048.09
2022-09-12T15:13:14.350Z,101051.91
2022-09-12T15:15:51.908Z,101053.72
2022-09-12T15:18:20.191Z,101041.34
2022-09-12T15:20:49.537Z,101055.41
2022-09-12T15:23:20.760Z,101049.50
2022-09-12T15:25:47.872Z,101048.84
2022-09-12T15:28:20.590Z,101050.69
2022-09-12T15:30:52.074Z,101042.38
2022-09-12T15:33:21.050Z,101044.75
2022-09-12T15:35:47.674Z,101045.44
2022-09-12T15:38:14.620Z,101037.19
2022-09-12T15:40:41.284Z,101042.34
2022-09-12T15:43:09.628Z,101035.72
2022-09-12T15:45:36.270Z,101029.28
2022-09-12T15:48:03.518Z,101028.56
2022-09-12T15:50:31.029Z,101041.03
2022-09-12T15:52:58.549Z,101035.34
2022-09-12T15:55:30.188Z,101041.66
2022-09-12T15:57:56.785Z,101034.81
2022-09-12T16:00:24.754Z,101034.69
2022-09-12T16:02:53.693Z,101031.28
2022-09-12T16:05:25.856Z,101033.16
2022-09-12T16:07:54.098Z,101025.69
2022-09-12T16:10:23.453Z,101028.94
2022-09-12T16:12:51.444Z,101024.78
2022-09-12T16:15:23.827Z,101018.53
2022-09-12T16:17:51.047Z,101019.09
2022-09-12T16:20:19.305Z,101019.72
2022-09-12T16:22:46.305Z,101022.78
2022-09-12T16:25:12.942Z,101019.22
2022-09-12T16:27:39.919Z,101009.06
2022-09-12T16:30:08.205Z,101010.66
2022-09-12T16:32:34.829Z,101010.41
2022-09-12T16:35:01.990Z,101006.66
2022-09-12T16:37:29.157Z,101002.09
2022-09-12T16:39:55.899Z,101002.69
2022-09-12T16:42:23.061Z,100998.13
2022-09-12T16:44:49.808Z,100997.88
2022-09-12T16:47:16.663Z,101000.13
2022-09-12T16:49:43.243Z,100994.41
2022-09-12T16:52:10.311Z,100987.16
2022-09-12T16:54:37.055Z,100985.22
2022-09-12T16:57:05.308Z,100989.56
2022-09-12T16:59:32.149Z,100986.69
2022-09-12T17:01:58.883Z,100976.53
2022-09-12T17:04:25.741Z,100977.38
2022-09-12T17:06:52.371Z,100980.59
2022-09-12T17:09:19.161Z,100972.50
2022-09-12T17:11:50.379Z,100979.47
2022-09-12T17:14:17.202Z,100983.94
2022-09-12T17:16:50.746Z,100972.38
2022-09-12T17:19:28.169Z,100975.88
2022-09-12T17:21:54.952Z,100960.81
2022-09-12T17:24:23.166Z,100971.09
2022-09-12T17:26:50.926Z,100966.63
2022-09-12T17:29:18.082Z,100967.31
2022-09-12T17:31:45.466Z,100960.78
2022-09-12T17:34:14.647Z,100964.50
2022-09-12T17:36:44.322Z,100962.41
2022-09-12T17:39:12.670Z,100961.41
2022-09-12T17:41:41.300Z,100962.91
2022-09-12T17:44:10.857Z,100962.88
2022-09-12T17:46:39.144Z,100964.53
2022-09-12T17:49:08.896Z,100967.22
2022-09-12T17:51:35.869Z,100973.75
2022-09-12T17:54:12.682Z,100969.25
2022-09-12T17:56:40.358Z,100972.81
2022-09-12T17:59:08.512Z,100980.41
2022-09-12T18:01:53.952Z,100983.53
2022-09-12T18:04:20.976Z,100983.38
2022-09-12T18:06:48.925Z,100975.00
2022-09-12T18:09:21.377Z,100979.00
2022-09-12T18:11:49.385Z,100981.31
2022-09-12T18:14:17.218Z,100977.38
2022-09-12T18:16:44.645Z,100977.75
2022-09-12T18:19:11.334Z,100965.91
2022-09-12T18:21:38.093Z,100975.16
2022-09-12T18:24:05.821Z,100966.22
2022-09-12T18:26:32.744Z,100969.09
2022-09-12T18:29:00.569Z,100969.59
2022-09-12T18:31:29.953Z,100967.34
2022-09-12T18:33:59.729Z,100959.78
2022-09-12T18:36:27.011Z,100958.13
2022-09-12T18:38:53.721Z,100962.09
2022-09-12T18:41:22.605Z,100965.69
2022-09-12T18:43:53.342Z,100960.66
2022-09-12T18:46:20.122Z,100964.59
2022-09-12T18:48:47.110Z,100968.56
2022-09-12T18:51:16.175Z,100967.16
2022-09-12T18:53:48.068Z,100959.72
2022-09-12T18:56:14.845Z,100960.22
2022-09-12T18:58:44.327Z,100950.50
2022-09-12T19:01:15.599Z,100948.88
2022-09-12T19:03:42.744Z,100938.59
2022-09-12T19:06:18.047Z,100943.38
2022-09-12T19:08:45.257Z,100939.44
2022-09-12T19:11:12.549Z,100941.69
2022-09-12T19:13:42.931Z,100930.69
2022-09-12T19:16:12.763Z,100935.47
2022-09-12T19:18:40.364Z,100934.28
2022-09-12T19:21:12.345Z,100933.69
2022-09-12T19:23:39.109Z,100933.31
2022-09-12T19:26:08.971Z,100925.91
2022-09-12T19:28:36.446Z,100930.69
2022-09-12T19:31:07.947Z,100926.00
2022-09-12T19:33:35.262Z,100925.25
2022-09-12T19:36:04.492Z,100923.22
2022-09-12T19:38:31.440Z,100921.69
2022-09-12T19:41:03.461Z,100919.34
2022-09-12T19:43:31.726Z,100927.59
2022-09-12T19:45:59.612Z,100916.56
2022-09-12T19:48:26.867Z,100917.88
2022-09-12T19:50:54.032Z,100922.41
2022-09-12T19:53:20.816Z,100920.97
2022-09-12T19:55:47.972Z,100923.13
2022-09-12T19:58:14.557Z,100920.72
2022-09-12T20:00:41.270Z,100912.22
2022-09-12T20:03:08.026Z,100920.56
2022-09-12T20:05:36.714Z,100925.06
2022-09-12T20:08:05.342Z,100917.56
2022-09-12T20:10:32.072Z,100908.44
2022-09-12T20:12:58.663Z,100905.19
2022-09-12T20:15:25.395Z,100903.63
2022-09-12T20:17:55.755Z,100905.75
2022-09-12T20:20:25.188Z,100905.88
2022-09-12T20:22:53.407Z,100902.75
2022-09-12T20:25:20.406Z,100904.63
2022-09-12T20:27:48.219Z,100902.25
2022-09-12T20:30:15.540Z,100894.69
2022-09-12T20:32:42.914Z,100898.59
2022-09-12T20:35:10.213Z,100900.41
2022-09-12T20:37:37.408Z,100901.44
2022-09-12T20:40:04.872Z,100904.06
2022-09-12T20:42:31.564Z,100890.44
2022-09-12T20:44:58.188Z,100895.94
2022-09-12T20:47:24.977Z,100897.19
2022-09-12T20:49:51.569Z,100892.91
2022-09-12T20:52:18.478Z,100887.13
2022-09-12T20:54:45.139Z,100885.44
2022-09-12T20:57:11.782Z,100894.41
2022-09-12T20:59:42.571Z,100879.69
2022-09-12T21:02:16.659Z,100882.31
2022-09-12T21:04:43.440Z,100882.53
2022-09-12T21:07:10.151Z,100889.56
2022-09-12T21:09:36.877Z,100895.06
2022-09-12T21:12:03.705Z,100887.38
2022-09-12T21:14:30.341Z,100887.50
2022-09-12T21:16:56.990Z,100888.56
2022-09-12T21:19:23.691Z,100878.28
2022-09-12T21:21:50.288Z,100883.72
2022-09-12T21:24:16.960Z,100883.63
2022-09-12T21:26:43.566Z,100884.66
2022-09-12T21:29:10.172Z,100878.66
2022-09-12T21:31:37.181Z,100876.28
2022-09-12T21:34:04.087Z,100873.03
2022-09-12T21:36:30.684Z,100866.09
2022-09-12T21:38:59.317Z,100868.72
2022-09-12T21:41:26.094Z,100867.16
2022-09-12T21:43:53.210Z,100867.38
2022-09-12T21:46:20.136Z,100861.38
2022-09-12T21:48:46.919Z,100872.63
2022-09-12T21:51:13.488Z,100858.66
2022-09-12T21:53:41.113Z,100856.13
2022-09-12T21:56:08.577Z,100852.66
2022-09-12T21:58:36.920Z,100857.19
2022-09-12T22:01:05.860Z,100852.03
2022-09-12T22:03:32.578Z,100844.41
2022-09-12T22:06:04.326Z,100840.91
2022-09-12T22:08:32.711Z,100842.81
2022-09-12T22:11:02.156Z,100841.97
2022-09-12T22:13:33.847Z,100836.84
2022-09-12T22:16:03.109Z,100837.91
2022-09-12T22:18:32.560Z,100824.03
2022-09-12T22:21:15.246Z,100823.41
2022-09-12T22:24:00.908Z,100817.34
2022-09-12T22:26:28.265Z,100814.50
2022-09-12T22:28:55.640Z,100808.44
2022-09-12T22:31:22.697Z,100816.06
2022-09-12T22:33:51.497Z,100814.41
2022-09-12T22:36:18.324Z,100811.88
2022-09-12T22:38:44.912Z,100803.38
2022-09-12T22:41:12.395Z,100800.13
2022-09-12T22:43:39.095Z,100795.72
2022-09-12T22:46:07.694Z,100783.88
2022-09-12T22:48:34.615Z,100790.69
2022-09-12T22:51:01.270Z,100785.44
2022-09-12T22:53:28.676Z,100777.47
2022-09-12T22:55:55.369Z,100766.47
2022-09-12T22:58:22.015Z,100763.22
2022-09-12T23:00:50.406Z,100768.34
2022-09-12T23:03:17.978Z,100764.56
2022-09-12T23:05:48.426Z,100761.44
2022-09-12T23:08:16.414Z,100769.84
2022-09-12T23:10:44.142Z,100761.25
2022-09-12T23:13:11.499Z,100763.44
2022-09-12T23:15:38.413Z,100756.66
2022-09-12T23:18:05.369Z,100758.31
2022-09-12T23:20:32.108Z,100752.22
2022-09-12T23:22:58.702Z,100750.97
2022-09-12T23:25:26.278Z,100753.16
2022-09-12T23:27:53.592Z,100757.47
2022-09-12T23:30:21.646Z,100748.38
2022-09-12T23:32:49.296Z,100747.28
2022-09-12T23:35:19.725Z,100750.69
2022-09-12T23:37:47.031Z,100751.41
2022-09-12T23:40:13.870Z,100742.56
2022-09-12T23:42:40.590Z,100745.19
2022-09-12T23:45:07.708Z,100750.44
2022-09-12T23:47:34.402Z,100737.31
2022-09-12T23:50:00.996Z,100739.84
2022-09-12T23:52:27.683Z,100735.13
2022-09-12T23:54:54.240Z,100733.47
2022-09-12T23:57:20.879Z,100730.84
2022-09-12T23:59:47.564Z,100725.59
